Time;durP1;ratioP1;P1;durP2;ratioP2;P2;SDS_P1;SDS_P2;PMS_P1;PMS_P2;Temp;Humidity;BMP_temperature;BMP_pressure;BME280_temperature;BME280_humidity;BME280_pressure;Samples;Min_cycle;Max_cycle;Signal;HPM_P1;HPM_P2
2022/09/13 00:00:52;;;;;;;0.98;0.70;;;21.60;60.20;;;;;;6215997;28;20030;-72
2022/09/13 00:03:53;;;;;;;0.68;0.52;;;21.60;60.20;;;;;;6215785;28;20025;-71
2022/09/13 00:06:53;;;;;;;1.20;0.82;;;21.60;60.10;;;;;;6215953;28;20018;-72
2022/09/13 00:09:54;;;;;;;0.98;0.70;;;21.60;60.10;;;;;;6213648;28;20051;-72
2022/09/13 00:12:54;;;;;;;1.13;0.65;;;21.60;60.10;;;;;;6214311;28;20026;-72
2022/09/13 00:15:55;;;;;;;0.75;0.68;;;21.60;60.00;;;;;;6214146;28;20365;-72
2022/09/13 00:18:56;;;;;;;0.90;0.60;;;21.70;60.20;;;;;;6214284;28;20037;-72
2022/09/13 00:21:56;;;;;;;0.70;0.50;;;21.60;60.10;;;;;;6214027;28;20426;-71
2022/09/13 00:24:57;;;;;;;0.65;0.63;;;21.60;60.00;;;;;;6214449;28;20033;-72
2022/09/13 00:27:58;;;;;;;0.73;0.60;;;21.60;60.10;;;;;;6213857;28;20022;-72
2022/09/13 00:31:00;;;;;;;0.82;0.70;;;21.60;60.00;;;;;;6218297;28;20120;-71
2022/09/13 00:34:01;;;;;;;0.98;0.75;;;21.60;60.00;;;;;;6218585;28;20014;-71
2022/09/13 00:37:02;;;;;;;1.20;0.80;;;21.60;60.00;;;;;;6218346;28;20034;-72
2022/09/13 00:40:03;;;;;;;1.70;0.73;;;21.60;60.00;;;;;;6218153;28;20042;-72
2022/09/13 00:43:11;;;;;;;0.50;0.50;;;21.60;59.90;;;;;;6218129;28;20065;-72
2022/09/13 00:46:24;;;;;;;0.70;0.65;;;21.60;59.80;;;;;;6217288;28;20061;-72
2022/09/13 00:49:37;;;;;;;0.60;0.60;;;21.60;60.00;;;;;;6217970;28;20049;-72
2022/09/13 00:52:39;;;;;;;0.68;0.60;;;21.60;60.00;;;;;;6218015;28;20554;-73
2022/09/13 00:55:50;;;;;;;0.52;0.52;;;21.60;59.90;;;;;;6217845;28;20056;-72
2022/09/13 00:59:01;;;;;;;0.80;0.60;;;21.60;60.00;;;;;;6218154;28;20038;-72
2022/09/13 01:02:03;;;;;;;0.63;0.63;;;21.60;59.90;;;;;;6192065;28;20026;-72
2022/09/13 01:05:05;;;;;;;0.95;0.82;;;21.60;60.00;;;;;;6201652;28;20026;-72
2022/09/13 01:08:13;;;;;;;0.80;0.60;;;21.60;60.00;;;;;;6217812;28;20105;-72
2022/09/13 01:11:41;;;;;;;0.40;0.40;;;21.60;60.00;;;;;;6217547;28;20533;-72
2022/09/13 01:14:43;;;;;;;0.88;0.63;;;21.60;60.10;;;;;;6217328;28;20025;-71
2022/09/13 01:17:44;;;;;;;0.57;0.57;;;21.60;60.00;;;;;;6320053;27;20049;-72
2022/09/13 01:21:03;;;;;;;0.60;0.50;;;21.60;60.00;;;;;;6217482;28;20021;-72
2022/09/13 01:24:28;;;;;;;0.75;0.63;;;21.60;60.00;;;;;;6215779;28;20015;-72
2022/09/13 01:27:41;;;;;;;;;;;21.60;60.00;;;;;;6193592;28;20392;-72
2022/09/13 01:31:11;;;;;;;0.57;0.45;;;21.60;60.00;;;;;;6203201;28;19905;-72
2022/09/13 01:34:42;;;;;;;0.60;0.50;;;21.60;60.20;;;;;;6216673;28;20022;-72
2022/09/13 01:38:08;;;;;;;0.47;0.40;;;21.60;60.00;;;;;;6191546;28;20034;-72
2022/09/13 01:42:16;;;;;;;0.65;0.63;;;21.60;60.00;;;;;;6205771;28;20121;-72
2022/09/13 01:45:38;;;;;;;0.50;0.50;;;21.60;60.00;;;;;;6291117;28;20036;-72
2022/09/13 01:48:46;;;;;;;0.40;0.40;;;21.60;60.00;;;;;;6286431;28;20284;-72
2022/09/13 01:52:01;;;;;;;0.52;0.52;;;21.60;60.10;;;;;;6216646;28;20464;-72
2022/09/13 01:55:26;;;;;;;1.05;0.60;;;21.60;60.10;;;;;;6216990;28;20036;-72
2022/09/13 01:58:31;;;;;;;1.00;0.60;;;21.60;60.50;;;;;;6216687;28;20053;-72
2022/09/13 02:01:58;;;;;;;0.73;0.60;;;21.60;60.00;;;;;;6221220;28;20355;-72
2022/09/13 02:05:13;;;;;;;0.60;0.60;;;21.60;60.00;;;;;;6217475;28;20037;-72
2022/09/13 02:08:20;;;;;;;0.60;0.55;;;21.60;60.00;;;;;;6192841;28;20488;-72
2022/09/13 02:11:21;;;;;;;0.60;0.60;;;21.60;59.80;;;;;;6202874;28;20334;-72
2022/09/13 02:14:31;;;;;;;0.95;0.77;;;21.60;60.00;;;;;;6216180;28;20426;-72
2022/09/13 02:17:37;;;;;;;0.60;0.60;;;21.60;59.90;;;;;;6216362;28;20025;-72
2022/09/13 02:20:43;;;;;;;0.80;0.57;;;21.60;60.20;;;;;;6290072;28;20033;-72
2022/09/13 02:23:49;;;;;;;0.50;0.50;;;21.60;60.00;;;;;;6290646;28;20127;-72
2022/09/13 02:26:53;;;;;;;0.45;0.45;;;21.60;59.90;;;;;;6290239;28;20257;-72
2022/09/13 02:29:59;;;;;;;0.75;0.60;;;21.60;59.90;;;;;;6290218;28;20070;-72
2022/09/13 02:33:06;;;;;;;1.20;0.70;;;21.60;59.80;;;;;;6289711;28;20079;-71
2022/09/13 02:36:20;;;;;;;0.63;0.45;;;21.60;59.90;;;;;;6289797;28;20032;-72
2022/09/13 02:39:24;;;;;;;0.85;0.60;;;21.60;59.70;;;;;;6290212;28;20067;-71
2022/09/13 02:42:40;;;;;;;0.80;0.60;;;21.60;59.80;;;;;;6290124;28;20059;-72
2022/09/13 02:46:06;;;;;;;0.75;0.70;;;21.60;59.90;;;;;;6272711;28;20032;-72
2022/09/13 02:49:12;;;;;;;0.60;0.50;;;21.60;59.80;;;;;;6290245;28;20028;-72
2022/09/13 02:52:26;;;;;;;0.40;0.40;;;21.60;59.80;;;;;;6231470;28;20100;-73
2022/09/13 02:55:48;;;;;;;0.60;0.60;;;21.60;60.00;;;;;;6215347;28;20095;-72
2022/09/13 02:58:56;;;;;;;0.52;0.52;;;21.60;60.00;;;;;;6215630;28;20026;-73
2022/09/13 03:02:09;;;;;;;0.55;0.55;;;21.60;59.80;;;;;;6214977;28;20033;-72
2022/09/13 03:05:10;;;;;;;0.30;0.30;;;21.60;60.00;;;;;;6214054;28;20022;-72
2022/09/13 03:08:13;;;;;;;0.47;0.47;;;21.60;59.80;;;;;;6215395;28;20549;-72
2022/09/13 03:11:40;;;;;;;0.65;0.60;;;21.60;59.90;;;;;;6216360;28;20445;-72
2022/09/13 03:15:05;;;;;;;0.40;0.40;;;21.60;59.70;;;;;;6290939;28;20039;-72
2022/09/13 03:18:18;;;;;;;0.82;0.50;;;21.60;59.70;;;;;;6290622;28;20093;-71
2022/09/13 03:21:55;;;;;;;0.82;0.60;;;21.60;59.80;;;;;;6289821;28;20124;-72
2022/09/13 03:25:27;;;;;;;0.60;0.50;;;21.60;59.80;;;;;;6288978;28;20032;-72
2022/09/13 03:28:48;;;;;;;0.57;0.50;;;21.60;59.70;;;;;;6288690;28;20040;-72
2022/09/13 03:32:27;;;;;;;0.75;0.52;;;21.60;59.80;;;;;;6288893;28;20024;-72
2022/09/13 03:35:43;;;;;;;0.50;0.40;;;21.60;59.70;;;;;;6273260;28;20512;-72
2022/09/13 03:39:08;;;;;;;0.30;0.30;;;21.60;59.90;;;;;;6288800;28;20490;-72
2022/09/13 03:42:18;;;;;;;0.70;0.43;;;21.60;59.90;;;;;;6288661;28;20558;-73
2022/09/13 03:45:25;;;;;;;0.77;0.57;;;21.60;60.00;;;;;;6301624;28;20612;-72
2022/09/13 03:48:28;;;;;;;0.65;0.50;;;21.60;59.90;;;;;;6317373;28;20028;-72
2022/09/13 03:51:28;;;;;;;0.57;0.57;;;21.60;59.80;;;;;;6317327;28;20123;-72
2022/09/13 03:54:31;;;;;;;0.52;0.40;;;21.60;59.90;;;;;;6317445;28;20034;-72
2022/09/13 03:57:32;;;;;;;0.73;0.50;;;21.60;59.70;;;;;;6317175;28;20008;-72
2022/09/13 04:00:32;;;;;;;0.50;0.50;;;21.60;59.80;;;;;;6317409;28;20035;-71
2022/09/13 04:03:33;;;;;;;0.50;0.50;;;21.60;59.70;;;;;;6317926;28;20205;-72
2022/09/13 04:06:33;;;;;;;0.57;0.50;;;21.60;59.70;;;;;;6325395;28;20069;-72
2022/09/13 04:09:34;;;;;;;0.88;0.50;;;21.60;59.70;;;;;;6325581;28;20020;-73
2022/09/13 04:12:35;;;;;;;0.50;0.50;;;21.60;59.70;;;;;;6325641;28;20024;-72
2022/09/13 04:15:35;;;;;;;0.40;0.40;;;21.60;59.70;;;;;;6325344;28;20024;-72
2022/09/13 04:18:36;;;;;;;0.50;0.50;;;21.60;59.70;;;;;;6325449;28;20044;-71
2022/09/13 04:21:37;;;;;;;0.60;0.43;;;21.60;59.80;;;;;;6324065;28;20051;-72
2022/09/13 04:24:38;;;;;;;0.77;0.63;;;21.60;59.70;;;;;;6325123;28;20031;-72
2022/09/13 04:27:39;;;;;;;0.43;0.40;;;21.60;59.60;;;;;;6325162;28;20032;-72
2022/09/13 04:30:46;;;;;;;0.73;0.57;;;21.60;59.60;;;;;;6325081;28;20078;-72
2022/09/13 04:33:48;;;;;;;0.82;0.60;;;21.60;59.70;;;;;;6324456;28;20024;-72
2022/09/13 04:36:51;;;;;;;0.68;0.52;;;21.60;59.60;;;;;;6324478;28;20036;-72
2022/09/13 04:39:52;;;;;;;0.50;0.50;;;21.60;59.60;;;;;;6325229;28;20125;-72
2022/09/13 04:42:53;;;;;;;0.73;0.50;;;21.60;60.40;;;;;;6281146;28;20050;-72
2022/09/13 04:45:53;;;;;;;0.45;0.45;;;21.60;59.70;;;;;;6221894;28;20025;-73
2022/09/13 04:48:54;;;;;;;0.60;0.57;;;21.60;59.60;;;;;;6223488;28;20022;-72
2022/09/13 04:51:55;;;;;;;0.63;0.50;;;21.60;59.70;;;;;;6223555;28;20018;-72
2022/09/13 04:54:59;;;;;;;0.90;0.68;;;21.60;59.50;;;;;;6223146;28;20022;-73
2022/09/13 04:57:59;;;;;;;0.40;0.40;;;21.60;59.70;;;;;;6221694;28;20034;-72
2022/09/13 05:01:05;;;;;;;0.40;0.40;;;21.60;59.50;;;;;;6219622;28;20099;-72
2022/09/13 05:04:06;;;;;;;0.63;0.55;;;21.60;59.50;;;;;;6205969;28;20516;-72
2022/09/13 05:07:07;;;;;;;0.60;0.50;;;21.60;59.70;;;;;;6221916;28;20414;-72
2022/09/13 05:10:08;;;;;;;0.93;0.50;;;21.60;59.50;;;;;;6221338;28;20079;-72
2022/09/13 05:13:08;;;;;;;0.63;0.50;;;21.60;59.60;;;;;;6221407;28;20025;-72
2022/09/13 05:16:09;;;;;;;0.52;0.52;;;21.60;59.60;;;;;;6217499;28;20414;-72
2022/09/13 05:19:11;;;;;;;0.30;0.30;;;21.60;59.60;;;;;;6217950;28;20022;-72
2022/09/13 05:22:11;;;;;;;0.88;0.60;;;21.60;59.50;;;;;;6217180;28;20373;-72
2022/09/13 05:25:12;;;;;;;0.80;0.60;;;21.60;59.50;;;;;;6217401;28;20037;-72
2022/09/13 05:28:13;;;;;;;0.60;0.55;;;21.60;59.50;;;;;;6217050;28;20071;-72
2022/09/13 05:31:23;;;;;;;0.50;0.50;;;21.60;59.50;;;;;;6217212;28;20100;-72
2022/09/13 05:34:24;;;;;;;0.60;0.60;;;21.60;59.50;;;;;;6218282;28;20025;-72
2022/09/13 05:37:24;;;;;;;0.60;0.50;;;21.60;59.70;;;;;;6218477;28;20050;-72
2022/09/13 05:40:25;;;;;;;0.50;0.47;;;21.60;59.60;;;;;;6218285;28;20026;-72
2022/09/13 05:43:27;;;;;;;0.80;0.60;;;21.60;59.50;;;;;;6218275;28;20618;-73
2022/09/13 05:46:28;;;;;;;0.70;0.60;;;21.60;59.60;;;;;;6217908;28;20722;-72
2022/09/13 05:49:29;;;;;;;0.70;0.57;;;21.60;59.50;;;;;;6216925;28;20029;-72
2022/09/13 05:52:29;;;;;;;0.40;0.40;;;21.60;59.60;;;;;;6216831;28;20053;-72
2022/09/13 05:55:30;;;;;;;0.50;0.50;;;21.60;59.50;;;;;;6216413;28;20026;-72
2022/09/13 05:58:32;;;;;;;0.35;0.35;;;21.60;59.60;;;;;;6217930;28;20037;-72
2022/09/13 06:01:33;;;;;;;0.68;0.50;;;21.60;59.50;;;;;;6207267;28;20754;-72
2022/09/13 06:04:34;;;;;;;0.40;0.40;;;21.60;59.60;;;;;;6213262;28;20022;-72
2022/09/13 06:07:35;;;;;;;0.68;0.50;;;21.60;59.60;;;;;;6219892;28;20507;-72
2022/09/13 06:10:36;;;;;;;0.55;0.50;;;21.60;59.50;;;;;;6218778;28;20114;-72
2022/09/13 06:13:38;;;;;;;0.82;0.50;;;21.60;59.60;;;;;;6220064;28;20025;-71
2022/09/13 06:16:38;;;;;;;0.68;0.60;;;21.60;59.60;;;;;;6219950;28;20029;-72
2022/09/13 06:19:39;;;;;;;0.40;0.40;;;21.60;59.60;;;;;;6220051;28;20582;-72
2022/09/13 06:22:39;;;;;;;0.35;0.32;;;21.60;59.60;;;;;;6219946;28;20026;-72
2022/09/13 06:25:40;;;;;;;0.70;0.50;;;21.60;59.50;;;;;;6219751;28;20057;-72
2022/09/13 06:28:42;;;;;;;0.50;0.45;;;21.60;59.60;;;;;;6225408;28;20022;-72
2022/09/13 06:31:44;;;;;;;0.60;0.50;;;21.60;59.60;;;;;;6219578;28;20030;-72
2022/09/13 06:34:44;;;;;;;0.50;0.43;;;21.60;59.60;;;;;;6219363;28;20081;-72
2022/09/13 06:37:45;;;;;;;0.68;0.60;;;21.60;59.80;;;;;;6219275;28;20022;-72
2022/09/13 06:40:45;;;;;;;0.73;0.43;;;21.60;59.70;;;;;;6219668;28;20079;-72
2022/09/13 06:43:46;;;;;;;0.82;0.70;;;21.60;59.70;;;;;;6225101;28;20054;-72
2022/09/13 06:46:47;;;;;;;0.60;0.57;;;21.60;59.70;;;;;;6219784;28;20029;-73
2022/09/13 06:49:48;;;;;;;0.40;0.40;;;21.60;59.60;;;;;;6219061;28;20022;-72
2022/09/13 06:52:48;;;;;;;0.75;0.60;;;21.60;59.50;;;;;;6218123;28;20454;-73
2022/09/13 06:55:59;;;;;;;0.40;0.40;;;21.60;59.80;;;;;;6218876;28;20192;-72
2022/09/13 06:59:03;;;;;;;0.63;0.52;;;21.60;59.80;;;;;;6219072;28;20030;-72
2022/09/13 07:02:04;;;;;;;0.80;0.70;;;21.60;59.60;;;;;;6218907;28;20113;-72
2022/09/13 07:05:05;;;;;;;0.60;0.50;;;21.60;59.60;;;;;;6219480;28;20030;-72
2022/09/13 07:08:06;;;;;;;0.70;0.43;;;21.60;59.60;;;;;;6218753;28;20477;-72
2022/09/13 07:11:08;;;;;;;0.63;0.60;;;21.60;59.70;;;;;;6219154;28;20022;-72
2022/09/13 07:14:18;;;;;;;0.60;0.50;;;21.60;59.70;;;;;;6218572;28;20042;-72
2022/09/13 07:17:19;;;;;;;0.80;0.60;;;21.60;59.70;;;;;;6218899;28;20022;-72
2022/09/13 07:20:21;;;;;;;0.50;0.40;;;21.60;59.70;;;;;;6218897;28;20034;-72
2022/09/13 07:23:22;;;;;;;0.95;0.50;;;21.60;59.50;;;;;;6218490;28;20067;-72
2022/09/13 07:26:25;;;;;;;0.95;0.60;;;21.60;59.70;;;;;;6218054;28;20533;-72
2022/09/13 07:29:26;;;;;;;0.65;0.52;;;21.60;59.60;;;;;;6218542;28;20117;-72
2022/09/13 07:32:26;;;;;;;0.90;0.50;;;21.60;59.60;;;;;;6218412;28;20472;-72
2022/09/13 07:35:27;;;;;;;0.82;0.60;;;21.60;59.60;;;;;;6218248;28;20026;-72
2022/09/13 07:38:28;;;;;;;0.45;0.40;;;21.60;59.50;;;;;;6217787;28;20109;-72
2022/09/13 07:41:30;;;;;;;0.60;0.47;;;21.60;59.60;;;;;;6218471;28;20503;-72
2022/09/13 07:44:31;;;;;;;0.40;0.40;;;21.60;59.70;;;;;;6217624;28;20042;-72
2022/09/13 07:47:32;;;;;;;0.80;0.50;;;21.60;59.60;;;;;;6217977;28;20044;-72
2022/09/13 07:50:33;;;;;;;1.95;0.60;;;21.60;59.60;;;;;;6224311;28;20484;-72
2022/09/13 07:53:35;;;;;;;0.75;0.63;;;21.60;59.60;;;;;;6217929;28;20087;-72
2022/09/13 07:56:37;;;;;;;0.47;0.38;;;21.60;59.60;;;;;;6218514;28;20033;-72
2022/09/13 07:59:38;;;;;;;0.47;0.47;;;21.60;59.80;;;;;;6218181;28;20124;-71
2022/09/13 08:02:38;;;;;;;0.60;0.50;;;21.60;60.40;;;;;;6224298;28;20036;-72
2022/09/13 08:05:40;;;;;;;0.50;0.50;;;21.60;59.60;;;;;;6218097;28;20090;-71
2022/09/13 08:08:41;;;;;;;0.85;0.60;;;21.60;59.70;;;;;;6218167;28;20093;-72
2022/09/13 08:11:44;;;;;;;0.68;0.60;;;21.60;59.70;;;;;;6217946;28;20376;-72
2022/09/13 08:14:45;;;;;;;0.52;0.50;;;21.60;59.60;;;;;;6217673;28;20018;-72
2022/09/13 08:17:46;;;;;;;0.50;0.50;;;21.60;59.70;;;;;;6217368;28;20034;-72
2022/09/13 08:20:46;;;;;;;0.68;0.50;;;21.60;59.60;;;;;;6217838;28;20027;-72
2022/09/13 08:23:47;;;;;;;0.50;0.50;;;21.60;59.60;;;;;;6217391;28;20030;-72
2022/09/13 08:26:48;;;;;;;0.60;0.50;;;21.70;59.70;;;;;;6217746;28;20549;-72
2022/09/13 08:29:49;;;;;;;0.77;0.70;;;21.60;59.70;;;;;;6217437;28;20044;-72
2022/09/13 08:32:50;;;;;;;0.68;0.50;;;21.60;59.70;;;;;;6217859;28;20022;-72
2022/09/13 08:35:51;;;;;;;0.40;0.40;;;21.60;59.20;;;;;;6217143;28;20516;-72
2022/09/13 08:38:58;;;;;;;0.77;0.50;;;21.60;59.90;;;;;;6217189;28;20069;-72
2022/09/13 08:42:10;;;;;;;0.60;0.50;;;21.60;59.20;;;;;;6217307;28;20113;-72
2022/09/13 08:45:10;;;;;;;0.90;0.80;;;21.60;59.30;;;;;;6216972;28;20470;-72
2022/09/13 08:48:15;;;;;;;0.55;0.50;;;21.60;59.60;;;;;;6217211;28;20026;-72
2022/09/13 08:51:29;;;;;;;0.80;0.73;;;21.60;59.30;;;;;;6220138;28;20022;-72
2022/09/13 08:54:31;;;;;;;0.57;0.40;;;21.60;59.50;;;;;;6221155;28;20318;-72
2022/09/13 08:57:43;;;;;;;0.68;0.60;;;21.60;59.10;;;;;;6221453;28;20268;-71
2022/09/13 09:00:50;;;;;;;0.50;0.40;;;21.60;59.30;;;;;;6221097;28;20388;-72
2022/09/13 09:04:28;;;;;;;0.80;0.60;;;21.60;59.20;;;;;;6221023;28;20022;-72
2022/09/13 09:07:40;;;;;;;0.73;0.63;;;21.60;59.40;;;;;;6221374;28;20539;-72
2022/09/13 09:10:46;;;;;;;0.90;0.70;;;21.60;59.50;;;;;;6296112;28;20033;-73
2022/09/13 09:14:14;;;;;;;0.63;0.57;;;21.60;59.50;;;;;;6296485;28;20029;-72
2022/09/13 09:17:24;;;;;;;0.80;0.60;;;21.60;59.50;;;;;;6294576;28;20033;-72
2022/09/13 09:20:26;;;;;;;1.13;0.80;;;21.60;59.20;;;;;;6294709;28;20044;-72
2022/09/13 09:23:35;;;;;;;0.55;0.55;;;21.60;59.40;;;;;;6295849;28;20196;-72
2022/09/13 09:26:36;;;;;;;0.70;0.50;;;21.60;59.50;;;;;;6296392;28;20447;-72
2022/09/13 09:29:39;;;;;;;0.70;0.60;;;21.60;59.40;;;;;;6295975;28;20052;-72
2022/09/13 09:33:06;;;;;;;0.65;0.60;;;21.60;59.40;;;;;;6296240;28;20032;-72
2022/09/13 09:36:19;;;;;;;0.50;0.50;;;21.60;59.40;;;;;;6295178;28;20033;-72
2022/09/13 09:39:20;;;;;;;0.50;0.50;;;21.60;59.30;;;;;;6295492;28;20037;-72
2022/09/13 09:42:28;;;;;;;0.85;0.68;;;21.60;59.40;;;;;;6233711;28;20492;-72
2022/09/13 09:45:34;;;;;;;0.60;0.60;;;21.70;59.70;;;;;;6220208;28;20022;-72
2022/09/13 09:48:43;;;;;;;0.80;0.60;;;21.60;59.50;;;;;;6220004;28;20022;-72
2022/09/13 09:51:44;;;;;;;0.75;0.68;;;21.60;59.50;;;;;;6220946;28;20049;-72
2022/09/13 09:54:47;;;;;;;0.60;0.60;;;21.60;59.50;;;;;;6220066;28;20026;-72
2022/09/13 09:58:03;;;;;;;0.65;0.50;;;21.70;59.60;;;;;;6220390;28;20033;-72
2022/09/13 10:01:06;;;;;;;0.80;0.60;;;21.60;59.50;;;;;;6195377;28;20035;-72
2022/09/13 10:04:09;;;;;;;0.70;0.68;;;21.60;59.70;;;;;;6204471;28;20032;-72
2022/09/13 10:07:29;;;;;;;0.60;0.60;;;21.60;59.50;;;;;;6220551;28;20034;-71
2022/09/13 10:10:41;;;;;;;0.52;0.52;;;21.60;59.50;;;;;;6219998;28;20014;-72
2022/09/13 10:14:02;;;;;;;0.80;0.55;;;21.60;59.50;;;;;;6219859;28;20022;-72
2022/09/13 10:17:04;;;;;;;0.68;0.60;;;21.60;59.40;;;;;;6220337;28;20105;-72
2022/09/13 10:20:14;;;;;;;0.82;0.63;;;21.60;59.50;;;;;;6219490;28;20037;-72
2022/09/13 10:23:14;;;;;;;1.67;0.70;;;21.70;59.40;;;;;;6219923;28;20489;-72
2022/09/13 10:26:17;;;;;;;0.98;0.70;;;21.70;59.70;;;;;;6219283;28;20033;-72
2022/09/13 10:29:18;;;;;;;0.68;0.60;;;21.60;59.70;;;;;;6219611;28;20045;-72
2022/09/13 10:32:20;;;;;;;0.85;0.82;;;21.60;59.70;;;;;;6225692;28;20030;-72
2022/09/13 10:35:20;;;;;;;0.77;0.50;;;21.60;59.50;;;;;;6219248;28;20049;-72
2022/09/13 10:38:56;;;;;;;0.82;0.60;;;21.70;59.70;;;;;;6218117;28;20033;-72
2022/09/13 10:42:05;;;;;;;0.70;0.70;;;21.70;60.00;;;;;;6205162;28;20069;-72
2022/09/13 10:45:07;;;;;;;0.85;0.60;;;21.70;59.70;;;;;;6205594;28;20034;-72
2022/09/13 10:48:16;;;;;;;0.95;0.65;;;21.70;59.60;;;;;;6219571;28;20014;-73
2022/09/13 10:51:26;;;;;;;0.80;0.60;;;21.60;59.80;;;;;;6218690;28;20029;-72
2022/09/13 10:54:27;;;;;;;0.88;0.65;;;21.60;59.90;;;;;;6218966;28;20425;-72
2022/09/13 10:57:36;;;;;;;0.68;0.60;;;21.60;59.80;;;;;;6222534;28;20026;-72
2022/09/13 11:00:55;;;;;;;0.70;0.70;;;21.60;59.70;;;;;;6217692;28;20038;-72
2022/09/13 11:04:02;;;;;;;0.60;0.60;;;21.60;59.70;;;;;;6219555;28;20030;-72
2022/09/13 11:07:26;;;;;;;1.20;0.50;;;21.60;60.00;;;;;;6194811;28;20489;-72
2022/09/13 11:10:43;;;;;;;0.77;0.70;;;21.60;59.60;;;;;;6205696;28;20045;-72
2022/09/13 11:14:02;;;;;;;0.90;0.65;;;21.70;59.80;;;;;;6217517;28;20018;-72
2022/09/13 11:17:51;;;;;;;1.33;0.85;;;21.60;59.70;;;;;;6218707;28;20105;-72
2022/09/13 11:21:18;;;;;;;0.70;0.70;;;21.60;59.80;;;;;;6244702;28;20038;-72
2022/09/13 11:24:48;;;;;;;1.00;0.60;;;21.60;59.60;;;;;;6226004;28;20052;-72
2022/09/13 11:28:08;;;;;;;0.70;0.52;;;21.60;60.40;;;;;;6218453;28;20062;-72
2022/09/13 11:31:11;;;;;;;0.75;0.70;;;21.60;59.70;;;;;;6217511;28;20476;-72
2022/09/13 11:34:58;;;;;;;0.88;0.70;;;21.60;59.90;;;;;;6218616;28;20441;-72
2022/09/13 11:38:18;;;;;;;0.60;0.60;;;21.60;59.80;;;;;;6198594;28;20717;-72
2022/09/13 11:41:30;;;;;;;0.52;0.50;;;21.60;60.00;;;;;;6208462;28;20500;-72
2022/09/13 11:45:09;;;;;;;1.10;0.77;;;21.60;60.00;;;;;;6218498;28;20069;-72
2022/09/13 11:48:09;;;;;;;0.57;0.52;;;21.60;59.80;;;;;;6194767;28;20493;-72
2022/09/13 11:51:24;;;;;;;0.60;0.60;;;21.60;59.90;;;;;;6205522;28;20109;-72
2022/09/13 11:54:50;;;;;;;0.93;0.70;;;21.60;59.80;;;;;;6218523;28;20075;-72
2022/09/13 11:58:04;;;;;;;0.85;0.73;;;21.60;59.80;;;;;;6194013;28;20091;-72
2022/09/13 12:01:09;;;;;;;0.60;0.60;;;21.60;59.90;;;;;;6203265;28;20030;-73
2022/09/13 12:04:27;;;;;;;1.00;0.77;;;21.60;59.90;;;;;;6217658;28;20018;-72
2022/09/13 12:07:34;;;;;;;0.82;0.70;;;21.60;59.70;;;;;;6217914;28;20443;-72
2022/09/13 12:10:42;;;;;;;0.50;0.50;;;21.60;59.70;;;;;;6217231;28;20011;-73
2022/09/13 12:13:48;;;;;;;0.80;0.75;;;21.60;59.80;;;;;;6217474;28;20075;-72
2022/09/13 12:16:53;;;;;;;0.73;0.73;;;21.60;59.90;;;;;;6217428;28;20079;-72
2022/09/13 12:19:56;;;;;;;;;;;21.60;59.90;;;;;;6218014;28;20030;-72
2022/09/13 12:23:00;;;;;;;1.10;0.70;;;21.70;59.80;;;;;;6217578;28;19906;-72
2022/09/13 12:26:14;;;;;;;0.73;0.70;;;21.60;59.80;;;;;;6219788;28;20086;-72
2022/09/13 12:29:53;;;;;;;1.42;0.90;;;21.60;59.90;;;;;;6221350;28;20105;-72
2022/09/13 12:32:54;;;;;;;0.45;0.45;;;21.60;60.00;;;;;;6251382;28;20038;-72
2022/09/13 12:36:17;;;;;;;0.70;0.70;;;21.60;60.00;;;;;;6221381;28;20025;-72
2022/09/13 12:39:37;;;;;;;1.30;0.80;;;21.60;59.80;;;;;;6221566;28;20467;-72
2022/09/13 12:42:51;;;;;;;0.60;0.57;;;21.60;59.90;;;;;;6221320;28;20056;-72
2022/09/13 12:46:03;;;;;;;1.02;0.80;;;21.60;60.00;;;;;;6221529;28;20022;-72
2022/09/13 12:49:25;;;;;;;1.15;0.88;;;21.60;59.90;;;;;;6221719;28;20029;-72
2022/09/13 12:52:46;;;;;;;0.70;0.60;;;21.60;59.70;;;;;;6220942;28;20096;-72
2022/09/13 12:56:10;;;;;;;0.80;0.80;;;21.60;59.90;;;;;;6226876;28;20036;-72
2022/09/13 12:59:19;;;;;;;0.88;0.82;;;21.60;59.70;;;;;;6204798;28;20487;-72
2022/09/13 13:02:34;;;;;;;0.98;0.85;;;21.60;59.80;;;;;;6208374;28;20042;-72
2022/09/13 13:05:53;;;;;;;0.73;0.73;;;21.60;59.80;;;;;;6221320;28;20071;-72
2022/09/13 13:08:56;;;;;;;0.90;0.73;;;21.60;59.90;;;;;;6221186;28;20053;-72
2022/09/13 13:11:58;;;;;;;0.73;0.68;;;21.60;59.90;;;;;;6220674;28;20488;-72
2022/09/13 13:15:26;;;;;;;0.80;0.80;;;21.60;59.90;;;;;;6221030;28;20116;-72
2022/09/13 13:18:43;;;;;;;0.80;0.77;;;21.60;59.80;;;;;;6220869;28;20523;-72
2022/09/13 13:21:44;;;;;;;0.80;0.80;;;21.60;59.80;;;;;;6220588;28;20026;-72
2022/09/13 13:24:47;;;;;;;0.98;0.75;;;21.60;59.90;;;;;;6220864;28;20112;-72
2022/09/13 13:27:50;;;;;;;0.80;0.75;;;21.60;60.00;;;;;;6220705;28;20018;-72
2022/09/13 13:30:53;;;;;;;0.65;0.57;;;21.60;60.00;;;;;;6220438;28;20030;-73
2022/09/13 13:34:09;;;;;;;0.90;0.80;;;21.60;59.90;;;;;;6220926;28;20026;-72
2022/09/13 13:37:09;;;;;;;0.77;0.77;;;21.60;59.80;;;;;;6219623;28;20464;-72
2022/09/13 13:40:29;;;;;;;0.77;0.70;;;21.60;59.60;;;;;;6220333;28;20026;-72
2022/09/13 13:43:32;;;;;;;0.75;0.60;;;21.60;59.60;;;;;;6220253;28;20496;-72
2022/09/13 13:46:33;;;;;;;1.08;0.90;;;21.60;59.80;;;;;;6219647;28;20509;-72
2022/09/13 13:49:37;;;;;;;0.60;0.60;;;21.60;59.90;;;;;;6219947;28;20026;-72
2022/09/13 13:52:51;;;;;;;0.63;0.63;;;21.60;60.00;;;;;;6219286;28;20022;-72
2022/09/13 13:56:17;;;;;;;0.82;0.75;;;21.60;59.70;;;;;;6219493;28;20026;-72
2022/09/13 13:59:31;;;;;;;0.60;0.60;;;21.60;59.80;;;;;;6218558;28;20458;-72
2022/09/13 14:02:43;;;;;;;0.63;0.60;;;21.60;59.80;;;;;;6219426;28;20025;-72
2022/09/13 14:05:47;;;;;;;1.30;0.90;;;21.60;60.00;;;;;;6227299;28;20026;-72
2022/09/13 14:09:19;;;;;;;0.68;0.68;;;21.60;59.90;;;;;;6219363;28;20065;-72
2022/09/13 14:12:35;;;;;;;0.85;0.60;;;21.60;59.90;;;;;;6219218;28;20052;-72
2022/09/13 14:15:46;;;;;;;0.88;0.77;;;21.60;59.70;;;;;;6218069;28;20042;-72
2022/09/13 14:18:52;;;;;;;0.80;0.80;;;21.60;59.80;;;;;;6219739;28;20076;-72
2022/09/13 14:22:15;;;;;;;0.75;0.68;;;21.60;59.70;;;;;;6219792;28;20030;-72
2022/09/13 14:25:18;;;;;;;0.70;0.52;;;21.60;60.10;;;;;;6195657;28;20026;-72
2022/09/13 14:28:21;;;;;;;0.80;0.60;;;21.60;59.80;;;;;;6203867;28;20105;-72
2022/09/13 14:31:22;;;;;;;0.88;0.73;;;21.60;59.80;;;;;;6219928;28;20058;-73
2022/09/13 14:34:27;;;;;;;0.60;0.60;;;21.60;60.00;;;;;;6219217;28;20078;-72
2022/09/13 14:37:34;;;;;;;0.65;0.60;;;21.60;60.00;;;;;;6219593;28;20533;-72
2022/09/13 14:40:36;;;;;;;0.80;0.70;;;21.60;60.00;;;;;;6194891;28;20030;-72
2022/09/13 14:43:37;;;;;;;0.70;0.70;;;21.60;60.20;;;;;;6203593;28;20436;-72
2022/09/13 14:46:41;;;;;;;0.75;0.70;;;21.60;59.90;;;;;;6219248;28;20025;-72
2022/09/13 14:49:48;;;;;;;1.10;0.73;;;21.60;60.00;;;;;;6218843;28;20110;-72
2022/09/13 14:52:59;;;;;;;0.70;0.70;;;21.60;60.00;;;;;;6219147;28;20030;-72
2022/09/13 14:56:14;;;;;;;0.60;0.60;;;21.60;60.00;;;;;;6219268;28;20057;-72
2022/09/13 14:59:28;;;;;;;1.20;0.88;;;21.60;59.70;;;;;;6219497;28;20384;-72
2022/09/13 15:02:34;;;;;;;1.08;0.80;;;21.60;59.60;;;;;;6218771;28;20200;-72
2022/09/13 15:05:35;;;;;;;0.65;0.65;;;21.60;59.70;;;;;;6218889;28;20022;-72
2022/09/13 15:08:42;;;;;;;0.80;0.60;;;21.60;59.80;;;;;;6218685;28;20721;-72
2022/09/13 15:11:52;;;;;;;1.00;0.70;;;21.60;59.80;;;;;;6218954;28;20030;-72
2022/09/13 15:15:35;;;;;;;0.45;0.40;;;21.60;59.90;;;;;;6218591;28;20018;-72
2022/09/13 15:18:35;;;;;;;0.75;0.70;;;21.60;59.70;;;;;;6225877;28;20038;-72
2022/09/13 15:21:36;;;;;;;0.65;0.60;;;21.60;59.70;;;;;;6218734;28;20048;-72
2022/09/13 15:24:41;;;;;;;1.52;0.88;;;21.60;59.70;;;;;;6218356;28;20047;-72
2022/09/13 15:27:44;;;;;;;0.50;0.50;;;21.60;59.80;;;;;;6218776;28;20018;-73
2022/09/13 15:30:45;;;;;;;1.02;0.77;;;21.60;59.70;;;;;;6217977;28;20026;-72
2022/09/13 15:33:45;;;;;;;0.80;0.65;;;21.60;59.70;;;;;;6218269;28;20029;-73
2022/09/13 15:37:11;;;;;;;0.75;0.70;;;21.60;59.70;;;;;;6218601;28;20083;-72
2022/09/13 15:40:20;;;;;;;0.52;0.43;;;21.60;59.70;;;;;;6225025;28;20037;-72
2022/09/13 15:43:21;;;;;;;0.73;0.60;;;21.60;59.70;;;;;;6216542;28;20094;-72
2022/09/13 15:46:21;;;;;;;0.68;0.60;;;21.60;59.60;;;;;;6218121;28;20060;-71
2022/09/13 15:49:26;;;;;;;0.70;0.70;;;21.60;60.00;;;;;;6218148;28;20088;-72
2022/09/13 15:52:26;;;;;;;0.60;0.60;;;21.60;60.00;;;;;;6218041;28;20034;-73
2022/09/13 15:55:29;;;;;;;0.60;0.60;;;21.60;60.00;;;;;;6218037;28;20079;-72
2022/09/13 15:58:31;;;;;;;0.68;0.68;;;21.60;59.90;;;;;;6217974;28;20419;-73
2022/09/13 16:01:31;;;;;;;2.10;0.93;;;21.60;60.00;;;;;;6217518;28;20033;-72
2022/09/13 16:04:32;;;;;;;0.73;0.68;;;21.60;60.20;;;;;;6217735;28;20037;-73
2022/09/13 16:07:33;;;;;;;0.50;0.50;;;21.60;60.20;;;;;;6217979;28;20033;-72
2022/09/13 16:10:33;;;;;;;0.68;0.63;;;21.60;60.00;;;;;;6217804;28;20022;-72
2022/09/13 16:13:35;;;;;;;0.55;0.52;;;21.60;60.00;;;;;;6218159;28;20434;-73
2022/09/13 16:16:35;;;;;;;0.90;0.73;;;21.60;60.00;;;;;;6216098;28;20026;-72
2022/09/13 16:19:36;;;;;;;0.57;0.55;;;21.60;60.20;;;;;;6215517;28;20037;-72